createdAt,value
2023-01-02T00:01:54.413Z,2.60
2023-01-02T00:04:20.907Z,2.20
2023-01-02T00:06:50.272Z,2.97
2023-01-02T00:09:19.766Z,2.20
2023-01-02T00:11:46.354Z,2.00
2023-01-02T00:14:13.737Z,3.55
2023-01-02T00:16:40.255Z,3.13
2023-01-02T00:19:08.612Z,1.90
2023-01-02T00:21:35.186Z,2.47
2023-01-02T00:24:01.679Z,2.60
2023-01-02T00:26:30.194Z,2.30
2023-01-02T00:28:57.015Z,2.10
2023-01-02T00:31:23.562Z,2.08
2023-01-02T00:33:53.040Z,2.42
2023-01-02T00:36:23.086Z,2.35
2023-01-02T00:38:55.354Z,2.20
2023-01-02T00:41:22.036Z,2.33
2023-01-02T00:43:50.618Z,1.92
2023-01-02T00:46:21.171Z,2.85
2023-01-02T00:48:47.759Z,2.63
2023-01-02T00:51:14.361Z,1.95
2023-01-02T00:53:40.893Z,1.70
2023-01-02T00:56:07.618Z,2.40
2023-01-02T00:58:34.733Z,2.85
2023-01-02T01:01:01.459Z,1.88
2023-01-02T01:03:28.085Z,2.40
2023-01-02T01:05:54.604Z,2.40
2023-01-02T01:08:22.906Z,3.70
2023-01-02T01:10:49.438Z,2.15
2023-01-02T01:13:15.928Z,2.97
2023-01-02T01:15:42.452Z,2.60
2023-01-02T01:18:09.094Z,1.95
2023-01-02T01:20:39.380Z,2.25
2023-01-02T01:23:05.938Z,2.00
2023-01-02T01:25:32.463Z,2.55
2023-01-02T01:27:58.956Z,2.75
2023-01-02T01:30:25.521Z,2.08
2023-01-02T01:32:52.939Z,2.10
2023-01-02T01:35:19.492Z,2.47
2023-01-02T01:37:45.976Z,1.90
2023-01-02T01:40:12.480Z,2.80
2023-01-02T01:42:38.994Z,1.90
2023-01-02T01:45:13.535Z,2.10
2023-01-02T01:47:55.033Z,1.65
2023-01-02T01:50:27.542Z,1.63
2023-01-02T01:53:00.188Z,3.20
2023-01-02T01:55:33.657Z,2.17
2023-01-02T01:58:08.529Z,2.28
2023-01-02T02:00:35.992Z,2.40
2023-01-02T02:03:11.543Z,2.72
2023-01-02T02:05:39.442Z,2.20
2023-01-02T02:08:21.844Z,2.63
2023-01-02T02:10:49.303Z,2.67
2023-01-02T02:13:16.836Z,1.58
2023-01-02T02:16:07.380Z,2.78
2023-01-02T02:18:33.855Z,2.35
2023-01-02T02:21:31.078Z,2.42
2023-01-02T02:24:42.024Z,1.80
2023-01-02T02:27:30.266Z,2.00
2023-01-02T02:30:14.986Z,2.38
2023-01-02T02:33:01.749Z,2.08
2023-01-02T02:35:59.359Z,2.10
2023-01-02T02:38:35.671Z,2.22
2023-01-02T02:41:22.376Z,2.17
2023-01-02T02:43:48.816Z,2.35
2023-01-02T02:46:21.338Z,1.77
2023-01-02T02:49:21.781Z,2.90
2023-01-02T02:52:05.954Z,2.85
2023-01-02T02:55:07.664Z,2.40
2023-01-02T02:57:35.622Z,1.90
2023-01-02T03:00:05.545Z,1.80
2023-01-02T03:02:32.228Z,2.00
2023-01-02T03:05:05.610Z,2.22
2023-01-02T03:07:39.718Z,2.63
2023-01-02T03:10:30.124Z,2.63
2023-01-02T03:13:50.037Z,2.03
2023-01-02T03:16:30.070Z,2.15
2023-01-02T03:19:09.021Z,1.90
2023-01-02T03:21:43.293Z,2.58
2023-01-02T03:24:13.842Z,2.72
2023-01-02T03:26:45.079Z,1.92
2023-01-02T03:29:18.860Z,2.58
2023-01-02T03:31:50.910Z,2.50
2023-01-02T03:34:38.850Z,1.60
2023-01-02T03:37:14.176Z,2.10
2023-01-02T03:39:49.445Z,1.85
2023-01-02T03:42:23.116Z,3.67
2023-01-02T03:45:16.521Z,2.13
2023-01-02T03:48:26.747Z,1.70
2023-01-02T03:50:56.200Z,2.35
2023-01-02T03:53:24.101Z,2.10
2023-01-02T03:56:09.467Z,3.15
2023-01-02T03:58:59.919Z,1.95
2023-01-02T04:01:48.077Z,2.20
2023-01-02T04:04:38.898Z,2.05
2023-01-02T04:07:11.014Z,2.25
2023-01-02T04:09:39.774Z,2.10
2023-01-02T04:12:11.015Z,1.98
2023-01-02T04:14:52.084Z,1.95
2023-01-02T04:17:22.231Z,2.50
2023-01-02T04:19:52.969Z,2.13
2023-01-02T04:22:26.559Z,2.58
2023-01-02T04:25:09.001Z,2.33
2023-01-02T04:27:41.147Z,2.08
2023-01-02T04:30:07.947Z,1.88
2023-01-02T04:32:45.258Z,2.20
2023-01-02T04:35:16.979Z,1.90
2023-01-02T04:37:44.612Z,2.00
2023-01-02T04:40:17.963Z,2.08
2023-01-02T04:42:44.528Z,2.25
2023-01-02T04:45:11.699Z,2.35
2023-01-02T04:47:38.198Z,1.83
2023-01-02T04:50:06.215Z,2.45
2023-01-02T04:52:37.485Z,1.70
2023-01-02T04:55:05.743Z,2.80
2023-01-02T04:57:35.699Z,2.10
2023-01-02T05:00:03.600Z,2.00
2023-01-02T05:02:35.922Z,2.58
2023-01-02T05:05:07.568Z,2.60
2023-01-02T05:07:37.615Z,2.55
2023-01-02T05:10:07.089Z,2.45
2023-01-02T05:12:37.889Z,1.83
2023-01-02T05:15:09.908Z,2.58
2023-01-02T05:17:40.910Z,2.85
2023-01-02T05:20:09.636Z,2.40
2023-01-02T05:22:57.660Z,2.25
2023-01-02T05:25:24.998Z,2.13
2023-01-02T05:27:55.365Z,2.70
2023-01-02T05:30:22.248Z,3.80
2023-01-02T05:32:48.899Z,2.28
2023-01-02T05:35:16.080Z,2.22
2023-01-02T05:37:42.612Z,2.08
2023-01-02T05:40:09.756Z,2.50
2023-01-02T05:42:39.380Z,2.17
2023-01-02T05:45:09.319Z,2.67
2023-01-02T05:47:38.925Z,2.80
2023-01-02T05:50:09.695Z,2.00
2023-01-02T05:52:45.235Z,2.60
2023-01-02T05:55:12.461Z,2.05
2023-01-02T05:57:39.068Z,2.65
2023-01-02T06:00:08.988Z,1.98
2023-01-02T06:02:37.646Z,2.47
2023-01-02T06:05:04.868Z,2.65
2023-01-02T06:07:32.137Z,2.30
2023-01-02T06:09:58.618Z,2.10
2023-01-02T06:12:25.119Z,2.17
2023-01-02T06:14:51.620Z,1.70
2023-01-02T06:17:18.124Z,2.17
2023-01-02T06:19:48.807Z,1.80
2023-01-02T06:22:18.657Z,2.55
2023-01-02T06:24:45.184Z,1.67
2023-01-02T06:27:11.694Z,1.80
2023-01-02T06:29:41.069Z,2.20
2023-01-02T06:32:13.155Z,2.80
2023-01-02T06:34:39.814Z,1.88
2023-01-02T06:37:10.000Z,2.35
2023-01-02T06:39:38.031Z,1.85
2023-01-02T06:42:04.528Z,1.92
2023-01-02T06:44:31.033Z,2.63
2023-01-02T06:46:57.533Z,2.10
2023-01-02T06:49:23.997Z,2.00
2023-01-02T06:51:50.533Z,2.55
2023-01-02T06:54:17.117Z,2.38
2023-01-02T06:56:43.616Z,1.70
2023-01-02T06:59:13.298Z,2.53
2023-01-02T07:01:50.560Z,2.08
2023-01-02T07:04:17.758Z,2.17
2023-01-02T07:06:44.273Z,2.10
2023-01-02T07:09:13.752Z,2.50
2023-01-02T07:11:42.903Z,1.95
2023-01-02T07:14:12.470Z,1.75
2023-01-02T07:16:41.682Z,2.38
2023-01-02T07:19:10.375Z,2.55
2023-01-02T07:21:36.863Z,2.30
2023-01-02T07:24:03.507Z,2.10
2023-01-02T07:26:30.059Z,1.90
2023-01-02T07:28:56.521Z,2.35
2023-01-02T07:31:23.190Z,1.92
2023-01-02T07:33:49.776Z,2.28
2023-01-02T07:36:18.908Z,2.05
2023-01-02T07:38:50.643Z,2.35
2023-01-02T07:41:19.385Z,2.17
2023-01-02T07:43:46.612Z,2.20
2023-01-02T07:46:15.742Z,2.10
2023-01-02T07:48:43.062Z,2.42
2023-01-02T07:51:26.589Z,1.90
2023-01-02T07:53:53.794Z,2.47
2023-01-02T07:56:20.574Z,2.53
2023-01-02T07:58:47.139Z,3.22
2023-01-02T08:01:14.167Z,2.35
2023-01-02T08:03:41.288Z,1.75
2023-01-02T08:06:14.102Z,2.58
2023-01-02T08:08:43.832Z,2.70
2023-01-02T08:11:19.022Z,1.80
2023-01-02T08:13:46.082Z,1.75
2023-01-02T08:16:17.640Z,1.85
2023-01-02T08:18:44.941Z,2.70
2023-01-02T08:21:11.529Z,2.35
2023-01-02T08:23:40.357Z,3.17
2023-01-02T08:26:10.408Z,2.42
2023-01-02T08:28:39.210Z,2.97
2023-01-02T08:31:16.521Z,2.08
2023-01-02T08:33:43.349Z,2.15
2023-01-02T08:36:14.595Z,2.72
2023-01-02T08:38:41.559Z,3.50
2023-01-02T08:41:12.382Z,2.20
2023-01-02T08:43:44.786Z,3.08
2023-01-02T08:46:11.341Z,2.42
2023-01-02T08:48:41.003Z,2.25
2023-01-02T08:51:09.530Z,2.30
2023-01-02T08:53:36.080Z,3.17
2023-01-02T08:56:22.931Z,2.00
2023-01-02T08:59:02.528Z,2.55
2023-01-02T09:01:31.414Z,2.20
2023-01-02T09:03:58.821Z,2.22
2023-01-02T09:06:27.893Z,1.92
2023-01-02T09:08:56.686Z,2.20
2023-01-02T09:11:31.848Z,3.38
2023-01-02T09:14:00.104Z,2.03
2023-01-02T09:16:27.149Z,1.98
2023-01-02T09:18:56.585Z,2.53
2023-01-02T09:21:23.608Z,2.70
2023-01-02T09:23:50.361Z,2.53
2023-01-02T09:26:17.482Z,2.45
2023-01-02T09:28:44.521Z,1.95
2023-01-02T09:31:13.980Z,2.03
2023-01-02T09:33:45.935Z,2.40
2023-01-02T09:36:14.996Z,2.97
2023-01-02T09:38:41.851Z,2.20
2023-01-02T09:41:26.835Z,2.38
2023-01-02T09:43:58.281Z,3.13
2023-01-02T09:46:55.642Z,2.40
2023-01-02T09:49:28.712Z,1.55
2023-01-02T09:51:55.328Z,2.28
2023-01-02T09:54:30.187Z,3.15
2023-01-02T09:57:18.515Z,2.95
2023-01-02T09:59:57.318Z,3.35
2023-01-02T10:02:45.189Z,2.70
2023-01-02T10:05:20.813Z,2.50
2023-01-02T10:08:17.854Z,2.25
2023-01-02T10:10:52.529Z,2.13
2023-01-02T10:13:59.883Z,2.58
2023-01-02T10:16:23.560Z,2.88
2023-01-02T10:18:53.854Z,3.22
2023-01-02T10:21:26.098Z,3.30
2023-01-02T10:24:02.559Z,3.72
2023-01-02T10:26:35.562Z,2.75
2023-01-02T10:29:29.254Z,2.67
2023-01-02T10:32:01.202Z,2.10
2023-01-02T10:34:39.850Z,2.65
2023-01-02T10:37:14.535Z,2.55
2023-01-02T10:39:43.606Z,2.67
2023-01-02T10:42:15.566Z,2.80
2023-01-02T10:44:44.364Z,2.55
2023-01-02T10:47:35.101Z,2.22
2023-01-02T10:50:04.284Z,2.88
2023-01-02T10:52:46.239Z,2.10
2023-01-02T10:55:12.833Z,2.80
2023-01-02T10:57:51.806Z,3.10
2023-01-02T11:00:27.367Z,3.10
2023-01-02T11:02:58.067Z,2.28
2023-01-02T11:05:27.783Z,2.55
2023-01-02T11:07:55.113Z,2.33
2023-01-02T11:10:33.113Z,2.33
2023-01-02T11:13:04.577Z,2.22
2023-01-02T11:15:34.811Z,2.55
2023-01-02T11:18:03.539Z,1.73
2023-01-02T11:20:34.573Z,2.00
2023-01-02T11:23:03.944Z,1.95
2023-01-02T11:25:42.531Z,1.92
2023-01-02T11:28:26.026Z,1.60
2023-01-02T11:31:04.626Z,2.92
2023-01-02T11:33:34.374Z,2.15
2023-01-02T11:36:04.009Z,2.03
2023-01-02T11:38:50.418Z,2.17
2023-01-02T11:41:49.382Z,0.50
2023-01-02T11:44:29.307Z,0.40
2023-01-02T11:46:57.851Z,0.20
2023-01-02T11:49:28.240Z,0.20
2023-01-02T11:52:05.025Z,0.40
2023-01-02T11:54:57.550Z,0.32
2023-01-02T11:57:31.157Z,0.32
2023-01-02T12:00:01.461Z,0.20
2023-01-02T12:02:36.359Z,0.50
2023-01-02T12:05:10.842Z,0.30
2023-01-02T12:07:44.246Z,0.40
2023-01-02T12:10:24.676Z,0.22
2023-01-02T12:13:29.676Z,0.28
2023-01-02T12:16:35.014Z,0.30
2023-01-02T12:19:01.517Z,0.30
2023-01-02T12:21:30.806Z,0.25
2023-01-02T12:24:06.783Z,0.30
2023-01-02T12:26:49.097Z,0.30
2023-01-02T12:29:46.726Z,0.20
2023-01-02T12:32:45.578Z,0.30
2023-01-02T12:36:13.319Z,0.30
2023-01-02T12:39:01.062Z,0.32
2023-01-02T12:42:03.388Z,0.40
2023-01-02T12:44:45.945Z,0.80
2023-01-02T12:47:59.810Z,0.60
2023-01-02T12:50:50.220Z,1.20
2023-01-02T12:53:42.866Z,0.65
2023-01-02T12:56:21.295Z,0.40
2023-01-02T12:59:06.018Z,0.40
2023-01-02T13:01:58.341Z,0.40
2023-01-02T13:04:33.598Z,0.52
2023-01-02T13:07:17.251Z,0.70
2023-01-02T13:10:03.390Z,0.68
2023-01-02T13:12:32.823Z,0.40
2023-01-02T13:15:03.672Z,0.52
2023-01-02T13:17:55.437Z,0.90
2023-01-02T13:20:37.793Z,0.70
2023-01-02T13:23:32.346Z,0.82
2023-01-02T13:26:03.705Z,1.20
2023-01-02T13:28:30.840Z,1.13
2023-01-02T13:33:54.785Z,0.50
2023-01-02T13:36:42.286Z,0.90
2023-01-02T13:39:42.125Z,1.25
2023-01-02T13:42:42.059Z,0.95
2023-01-02T13:45:18.798Z,1.13
2023-01-02T13:47:50.847Z,2.50
2023-01-02T13:50:22.944Z,1.10
2023-01-02T13:53:14.650Z,1.23
2023-01-02T13:55:59.463Z,0.90
2023-01-02T13:58:38.137Z,0.90
2023-01-02T14:01:27.057Z,0.82
2023-01-02T14:04:22.999Z,1.33
2023-01-02T14:06:53.856Z,1.50
2023-01-02T14:09:22.852Z,1.58
2023-01-02T14:11:59.623Z,2.35
2023-01-02T14:14:49.941Z,2.17
2023-01-02T14:17:37.976Z,2.50
2023-01-02T14:20:24.952Z,1.90
2023-01-02T14:22:58.982Z,1.23
2023-01-02T14:25:26.279Z,1.20
2023-01-02T14:28:00.851Z,1.40
2023-01-02T14:30:36.437Z,0.98
2023-01-02T14:33:06.294Z,1.38
2023-01-02T14:35:39.156Z,1.52
2023-01-02T14:38:14.760Z,1.13
2023-01-02T14:40:45.637Z,1.00
2023-01-02T14:43:35.760Z,1.42
2023-01-02T14:46:05.379Z,1.92
2023-01-02T14:48:37.564Z,0.98
2023-01-02T14:51:13.620Z,1.83
2023-01-02T14:54:04.451Z,1.23
2023-01-02T14:56:35.821Z,1.27
2023-01-02T14:59:04.835Z,1.00
2023-01-02T15:01:43.146Z,1.00
2023-01-02T15:04:45.873Z,2.05
2023-01-02T15:07:36.746Z,1.85
2023-01-02T15:10:15.387Z,3.08
2023-01-02T15:13:03.838Z,2.47
2023-01-02T15:15:45.588Z,2.28
2023-01-02T15:18:34.472Z,3.03
2023-01-02T15:21:14.038Z,3.83
2023-01-02T15:23:46.451Z,5.45
2023-01-02T15:26:31.428Z,5.47
2023-01-02T15:29:01.807Z,5.45
2023-01-02T15:31:28.942Z,5.70
2023-01-02T15:33:57.628Z,3.70
2023-01-02T15:36:38.276Z,2.08
2023-01-02T15:39:20.504Z,2.03
2023-01-02T15:41:54.448Z,1.35
2023-01-02T15:44:42.302Z,1.30
2023-01-02T15:47:11.979Z,1.10
2023-01-02T15:49:44.457Z,1.42
2023-01-02T15:52:25.078Z,1.23
2023-01-02T15:54:53.186Z,1.35
2023-01-02T15:57:27.856Z,0.90
2023-01-02T15:59:55.255Z,1.00
2023-01-02T16:02:46.343Z,1.33
2023-01-02T16:05:15.633Z,1.27
2023-01-02T16:07:48.485Z,1.17
2023-01-02T16:10:24.130Z,1.55
2023-01-02T16:12:54.440Z,3.00
2023-01-02T16:15:28.570Z,1.80
2023-01-02T16:17:56.358Z,2.42
2023-01-02T16:20:24.565Z,3.00
2023-01-02T16:22:53.867Z,2.83
2023-01-02T16:25:25.620Z,2.90
2023-01-02T16:28:01.761Z,2.75
2023-01-02T16:30:44.385Z,2.40
2023-01-02T16:33:28.147Z,2.58
2023-01-02T16:36:01.081Z,2.00
2023-01-02T16:38:28.631Z,1.63
2023-01-02T16:41:03.416Z,1.63
2023-01-02T16:43:33.413Z,1.52
2023-01-02T16:46:03.195Z,1.70
2023-01-02T16:48:30.641Z,2.28
2023-01-02T16:50:58.936Z,1.90
2023-01-02T16:53:31.908Z,2.35
2023-01-02T16:55:59.152Z,2.10
2023-01-02T16:58:26.741Z,1.70
2023-01-02T17:00:55.547Z,2.80
2023-01-02T17:03:25.257Z,5.97
2023-01-02T17:06:02.274Z,5.90
2023-01-02T17:08:33.143Z,2.63
2023-01-02T17:11:00.759Z,2.28
2023-01-02T17:13:28.248Z,2.28
2023-01-02T17:15:55.900Z,2.03
2023-01-02T17:18:22.672Z,2.03
2023-01-02T17:20:49.262Z,2.20
2023-01-02T17:23:18.964Z,1.60
2023-01-02T17:25:46.330Z,1.88
2023-01-02T17:28:13.306Z,1.98
2023-01-02T17:30:49.256Z,2.78
2023-01-02T17:33:16.697Z,2.08
2023-01-02T17:35:47.659Z,1.90
2023-01-02T17:38:17.274Z,1.90
2023-01-02T17:40:45.032Z,2.85
2023-01-02T17:43:11.963Z,2.33
2023-01-02T17:45:38.615Z,2.10
2023-01-02T17:48:10.950Z,1.35
2023-01-02T17:50:38.540Z,1.48
2023-01-02T17:53:05.071Z,1.70
2023-01-02T17:55:31.597Z,1.92
2023-01-02T17:58:00.393Z,2.13
2023-01-02T18:00:27.258Z,2.25
2023-01-02T18:02:53.871Z,2.10
2023-01-02T18:05:21.255Z,2.67
2023-01-02T18:07:48.886Z,2.42
2023-01-02T18:10:20.491Z,1.90
2023-01-02T18:12:49.019Z,1.73
2023-01-02T18:15:19.786Z,2.00
2023-01-02T18:17:46.933Z,2.28
2023-01-02T18:20:21.487Z,2.00
2023-01-02T18:22:50.785Z,2.38
2023-01-02T18:25:27.271Z,2.92
2023-01-02T18:28:05.208Z,2.97
2023-01-02T18:30:31.819Z,3.35
2023-01-02T18:33:12.437Z,3.22
2023-01-02T18:38:33.889Z,2.83
2023-01-02T18:41:00.522Z,2.13
2023-01-02T18:43:35.845Z,2.20
2023-01-02T18:46:15.060Z,1.65
2023-01-02T18:48:42.050Z,2.40
2023-01-02T18:51:16.445Z,2.28
2023-01-02T18:53:49.544Z,2.10
2023-01-02T18:56:17.552Z,2.45
2023-01-02T18:59:05.711Z,2.70
2023-01-02T19:01:39.216Z,2.22
2023-01-02T19:04:16.588Z,2.08
2023-01-02T19:06:55.611Z,2.35
2023-01-02T19:09:28.819Z,2.83
2023-01-02T19:12:19.708Z,2.40
2023-01-02T19:14:46.334Z,2.67
2023-01-02T19:17:25.989Z,2.42
2023-01-02T19:19:54.838Z,2.75
2023-01-02T19:22:24.203Z,2.40
2023-01-02T19:24:50.838Z,2.00
2023-01-02T19:27:27.398Z,2.20
2023-01-02T19:29:54.017Z,2.67
2023-01-02T19:32:30.933Z,2.35
2023-01-02T19:35:25.406Z,2.70
2023-01-02T19:37:51.940Z,2.20
2023-01-02T19:40:21.835Z,2.42
2023-01-02T19:42:50.309Z,2.47
2023-01-02T19:45:43.184Z,2.55
2023-01-02T19:48:12.567Z,2.63
2023-01-02T19:50:42.938Z,2.15
2023-01-02T19:53:09.518Z,2.38
2023-01-02T19:55:36.658Z,2.55
2023-01-02T19:58:04.421Z,2.00
2023-01-02T20:00:31.295Z,2.35
2023-01-02T20:02:58.072Z,1.77
2023-01-02T20:05:24.883Z,2.20
2023-01-02T20:07:54.881Z,2.55
2023-01-02T20:10:24.472Z,2.38
2023-01-02T20:12:54.151Z,2.38
2023-01-02T20:15:26.859Z,2.58
2023-01-02T20:17:54.307Z,2.65
2023-01-02T20:20:25.883Z,2.85
2023-01-02T20:22:54.736Z,2.15
2023-01-02T20:25:24.618Z,2.78
2023-01-02T20:27:55.912Z,3.78
2023-01-02T20:30:25.263Z,3.80
2023-01-02T20:32:56.496Z,4.43
2023-01-02T20:35:23.347Z,3.63
2023-01-02T20:37:53.096Z,4.07
2023-01-02T20:40:21.835Z,3.63
2023-01-02T20:42:48.352Z,3.05
2023-01-02T20:45:14.911Z,3.33
2023-01-02T20:47:41.403Z,3.25
2023-01-02T20:50:08.443Z,3.60
2023-01-02T20:52:34.925Z,3.42
2023-01-02T20:55:01.499Z,3.05
2023-01-02T20:57:29.482Z,2.92
2023-01-02T20:59:56.310Z,3.00
2023-01-02T21:02:23.168Z,3.38
2023-01-02T21:04:53.074Z,3.22
2023-01-02T21:07:21.471Z,3.80
2023-01-02T21:09:48.145Z,3.10
2023-01-02T21:12:33.171Z,3.40
2023-01-02T21:14:59.686Z,3.47
2023-01-02T21:17:26.167Z,2.65
2023-01-02T21:19:55.388Z,2.60
2023-01-02T21:22:21.923Z,2.53
2023-01-02T21:24:52.510Z,3.72
2023-01-02T21:27:21.163Z,3.10
2023-01-02T21:29:57.858Z,2.97
2023-01-02T21:32:24.377Z,3.58
2023-01-02T21:34:53.898Z,2.97
2023-01-02T21:37:23.647Z,2.95
2023-01-02T21:39:53.172Z,3.85
2023-01-02T21:42:20.170Z,3.58
2023-01-02T21:44:47.871Z,4.50
2023-01-02T21:47:15.701Z,4.53
2023-01-02T21:49:42.520Z,4.35
2023-01-02T21:52:09.117Z,4.22
2023-01-02T21:54:35.754Z,3.58
2023-01-02T21:57:02.340Z,3.38
2023-01-02T21:59:30.063Z,3.65
2023-01-02T22:01:59.731Z,4.50
2023-01-02T22:04:26.380Z,5.18
2023-01-02T22:09:43.028Z,4.72
2023-01-02T22:12:09.843Z,4.45
2023-01-02T22:14:37.925Z,4.10
2023-01-02T22:17:09.597Z,4.28
2023-01-02T22:19:36.981Z,5.38
2023-01-02T22:22:04.674Z,5.00
2023-01-02T22:24:31.663Z,5.40
2023-01-02T22:27:02.451Z,5.82
2023-01-02T22:30:09.210Z,5.50
2023-01-02T22:32:16.614Z,4.85
2023-01-02T22:34:44.240Z,5.45
2023-01-02T22:37:16.954Z,4.30
2023-01-02T22:39:46.810Z,4.53
2023-01-02T22:43:02.888Z,3.90
2023-01-02T22:45:35.384Z,5.15
2023-01-02T22:48:05.757Z,5.03
2023-01-02T22:50:44.943Z,4.85
2023-01-02T22:53:21.096Z,4.78
2023-01-02T22:55:48.296Z,3.90
2023-01-02T22:58:14.975Z,4.13
2023-01-02T23:00:41.865Z,5.15
2023-01-02T23:03:14.463Z,4.15
2023-01-02T23:05:41.685Z,4.07
2023-01-02T23:08:08.973Z,4.32
2023-01-02T23:10:35.584Z,4.95
2023-01-02T23:13:02.139Z,4.78
2023-01-02T23:15:28.881Z,4.07
2023-01-02T23:18:17.306Z,3.95
2023-01-02T23:20:43.841Z,4.38
2023-01-02T23:23:10.438Z,4.32
2023-01-02T23:25:42.263Z,4.78
2023-01-02T23:28:08.993Z,3.85
2023-01-02T23:30:35.490Z,4.10
2023-01-02T23:33:02.044Z,5.55
2023-01-02T23:35:28.643Z,5.15
2023-01-02T23:37:57.526Z,5.70
2023-01-02T23:40:24.042Z,5.35
2023-01-02T23:42:50.524Z,6.03
2023-01-02T23:45:17.042Z,5.88
2023-01-02T23:47:43.502Z,4.97
2023-01-02T23:50:10.193Z,5.18
2023-01-02T23:52:36.694Z,4.68
2023-01-02T23:55:03.326Z,4.40
2023-01-02T23:57:29.787Z,5.32
2023-01-02T23:59:59.800Z,4.88
